sensor_id;sensor_type;location;lat;lon;timestamp;temperature;humidity
9385;DHT22;4732;49.340;10.886;2023-01-01T04:01:50;10.50;99.90
9385;DHT22;4732;49.340;10.886;2023-01-01T04:04:17;10.30;99.90
9385;DHT22;4732;49.340;10.886;2023-01-01T04:06:43;10.80;99.90
9385;DHT22;4732;49.340;10.886;2023-01-01T04:09:14;10.90;99.90
9385;DHT22;4732;49.340;10.886;2023-01-01T04:11:42;11.00;99.90
9385;DHT22;4732;49.340;10.886;2023-01-01T04:14:40;10.90;99.90
9385;DHT22;4732;49.340;10.886;2023-01-01T04:17:08;10.80;99.90
9385;DHT22;4732;49.340;10.886;2023-01-01T04:19:34;10.90;99.90
9385;DHT22;4732;49.340;10.886;2023-01-01T04:22:00;10.80;99.90
9385;DHT22;4732;49.340;10.886;2023-01-01T04:24:26;10.70;99.90
9385;DHT22;4732;49.340;10.886;2023-01-01T04:26:52;10.70;99.90
9385;DHT22;4732;49.340;10.886;2023-01-01T04:29:18;10.60;99.90
9385;DHT22;4732;49.340;10.886;2023-01-01T04:31:44;10.50;99.90
9385;DHT22;4732;49.340;10.886;2023-01-01T04:34:10;10.50;99.90
9385;DHT22;4732;49.340;10.886;2023-01-01T04:36:36;10.40;99.90
9385;DHT22;4732;49.340;10.886;2023-01-01T04:39:02;10.20;99.90
9385;DHT22;4732;49.340;10.886;2023-01-01T04:41:27;10.20;99.90
9385;DHT22;4732;49.340;10.886;2023-01-01T04:43:53;10.10;99.90
9385;DHT22;4732;49.340;10.886;2023-01-01T04:46:20;10.00;99.90
9385;DHT22;4732;49.340;10.886;2023-01-01T04:48:46;9.90;99.90
9385;DHT22;4732;49.340;10.886;2023-01-01T04:51:13;9.90;99.90
9385;DHT22;4732;49.340;10.886;2023-01-01T04:53:39;9.90;99.90
9385;DHT22;4732;49.340;10.886;2023-01-01T04:56:06;9.90;99.90
9385;DHT22;4732;49.340;10.886;2023-01-01T04:58:33;9.80;99.90
9385;DHT22;4732;49.340;10.886;2023-01-01T05:00:59;9.80;99.90
9385;DHT22;4732;49.340;10.886;2023-01-01T05:03:25;9.80;99.90
9385;DHT22;4732;49.340;10.886;2023-01-01T05:06:06;9.90;99.90
9385;DHT22;4732;49.340;10.886;2023-01-01T05:08:33;9.90;99.90
9385;DHT22;4732;49.340;10.886;2023-01-01T05:11:05;10.00;99.90
9385;DHT22;4732;49.340;10.886;2023-01-01T05:13:32;10.10;99.90
9385;DHT22;4732;49.340;10.886;2023-01-01T05:16:02;10.20;99.90
9385;DHT22;4732;49.340;10.886;2023-01-01T05:18:27;10.20;99.90
9385;DHT22;4732;49.340;10.886;2023-01-01T05:20:57;10.30;99.90
9385;DHT22;4732;49.340;10.886;2023-01-01T05:23:23;10.30;99.90
9385;DHT22;4732;49.340;10.886;2023-01-01T05:25:48;10.30;99.90
9385;DHT22;4732;49.340;10.886;2023-01-01T05:28:14;10.30;99.90
9385;DHT22;4732;49.340;10.886;2023-01-01T05:30:39;9.90;99.90
9385;DHT22;4732;49.340;10.886;2023-01-01T05:33:05;10.50;99.90
9385;DHT22;4732;49.340;10.886;2023-01-01T05:35:30;9.80;99.90
9385;DHT22;4732;49.340;10.886;2023-01-01T05:37:56;10.30;99.90
9385;DHT22;4732;49.340;10.886;2023-01-01T05:40:21;10.50;99.90
9385;DHT22;4732;49.340;10.886;2023-01-01T05:42:47;10.40;99.90
9385;DHT22;4732;49.340;10.886;2023-01-01T05:45:13;10.40;99.90
9385;DHT22;4732;49.340;10.886;2023-01-01T05:47:38;10.20;99.90
9385;DHT22;4732;49.340;10.886;2023-01-01T05:50:04;10.10;99.90
9385;DHT22;4732;49.340;10.886;2023-01-01T05:52:30;10.00;99.90
9385;DHT22;4732;49.340;10.886;2023-01-01T05:54:55;10.00;99.90
9385;DHT22;4732;49.340;10.886;2023-01-01T05:57:22;9.90;99.90
9385;DHT22;4732;49.340;10.886;2023-01-01T05:59:48;9.90;99.90
9385;DHT22;4732;49.340;10.886;2023-01-01T06:02:14;9.90;99.90
9385;DHT22;4732;49.340;10.886;2023-01-01T06:04:39;9.90;99.90
9385;DHT22;4732;49.340;10.886;2023-01-01T06:07:05;9.60;99.90
9385;DHT22;4732;49.340;10.886;2023-01-01T06:09:30;9.80;99.90
9385;DHT22;4732;49.340;10.886;2023-01-01T06:11:56;9.10;99.90
9385;DHT22;4732;49.340;10.886;2023-01-01T06:14:21;9.70;99.90
9385;DHT22;4732;49.340;10.886;2023-01-01T06:16:47;9.70;99.90
9385;DHT22;4732;49.340;10.886;2023-01-01T06:19:12;9.60;99.90
9385;DHT22;4732;49.340;10.886;2023-01-01T06:21:37;9.60;99.90
9385;DHT22;4732;49.340;10.886;2023-01-01T06:24:03;9.60;99.90
9385;DHT22;4732;49.340;10.886;2023-01-01T06:26:31;9.60;99.90
9385;DHT22;4732;49.340;10.886;2023-01-01T06:28:57;9.60;99.90
9385;DHT22;4732;49.340;10.886;2023-01-01T06:31:24;9.60;99.90
9385;DHT22;4732;49.340;10.886;2023-01-01T06:33:50;9.70;99.90
9385;DHT22;4732;49.340;10.886;2023-01-01T06:36:18;9.60;99.90
9385;DHT22;4732;49.340;10.886;2023-01-01T06:38:46;9.60;99.90
9385;DHT22;4732;49.340;10.886;2023-01-01T06:41:21;9.10;99.90
9385;DHT22;4732;49.340;10.886;2023-01-01T06:43:46;9.60;99.90
9385;DHT22;4732;49.340;10.886;2023-01-01T06:48:48;9.50;99.90
9385;DHT22;4732;49.340;10.886;2023-01-01T06:51:17;9.40;99.90
9385;DHT22;4732;49.340;10.886;2023-01-01T06:53:44;9.40;99.90
9385;DHT22;4732;49.340;10.886;2023-01-01T06:56:10;9.40;99.90
9385;DHT22;4732;49.340;10.886;2023-01-01T06:58:36;9.40;99.90
9385;DHT22;4732;49.340;10.886;2023-01-01T07:01:22;9.40;99.90
9385;DHT22;4732;49.340;10.886;2023-01-01T07:03:58;9.40;99.90
9385;DHT22;4732;49.340;10.886;2023-01-01T07:06:25;9.40;99.90
9385;DHT22;4732;49.340;10.886;2023-01-01T07:08:50;9.30;99.90
9385;DHT22;4732;49.340;10.886;2023-01-01T07:11:17;9.40;99.90
9385;DHT22;4732;49.340;10.886;2023-01-01T07:13:43;9.30;99.90
9385;DHT22;4732;49.340;10.886;2023-01-01T07:16:09;9.30;99.90
9385;DHT22;4732;49.340;10.886;2023-01-01T07:18:34;9.30;99.90
9385;DHT22;4732;49.340;10.886;2023-01-01T07:21:02;9.30;99.90
9385;DHT22;4732;49.340;10.886;2023-01-01T07:23:29;9.10;99.90
9385;DHT22;4732;49.340;10.886;2023-01-01T07:25:55;9.20;99.90
9385;DHT22;4732;49.340;10.886;2023-01-01T07:28:22;9.30;99.90
9385;DHT22;4732;49.340;10.886;2023-01-01T07:30:48;8.80;99.90
9385;DHT22;4732;49.340;10.886;2023-01-01T07:33:17;9.40;99.90
9385;DHT22;4732;49.340;10.886;2023-01-01T07:35:43;9.40;99.90
9385;DHT22;4732;49.340;10.886;2023-01-01T07:38:10;9.50;99.90
9385;DHT22;4732;49.340;10.886;2023-01-01T07:40:36;9.50;99.90
9385;DHT22;4732;49.340;10.886;2023-01-01T07:43:01;9.20;99.90
9385;DHT22;4732;49.340;10.886;2023-01-01T07:45:27;9.00;99.90
9385;DHT22;4732;49.340;10.886;2023-01-01T07:47:54;9.10;99.90
9385;DHT22;4732;49.340;10.886;2023-01-01T07:50:21;9.50;99.90
9385;DHT22;4732;49.340;10.886;2023-01-01T07:52:46;9.80;99.90
9385;DHT22;4732;49.340;10.886;2023-01-01T07:55:13;9.40;99.90
9385;DHT22;4732;49.340;10.886;2023-01-01T07:57:40;9.70;99.90
9385;DHT22;4732;49.340;10.886;2023-01-01T08:00:06;9.70;99.90
9385;DHT22;4732;49.340;10.886;2023-01-01T08:02:32;9.70;99.90
9385;DHT22;4732;49.340;10.886;2023-01-01T08:04:58;9.70;99.90
9385;DHT22;4732;49.340;10.886;2023-01-01T08:07:23;9.50;99.90
9385;DHT22;4732;49.340;10.886;2023-01-01T08:09:49;9.70;99.90
9385;DHT22;4732;49.340;10.886;2023-01-01T08:12:14;9.50;99.90
9385;DHT22;4732;49.340;10.886;2023-01-01T08:14:40;9.40;99.90
9385;DHT22;4732;49.340;10.886;2023-01-01T08:17:05;9.70;99.90
9385;DHT22;4732;49.340;10.886;2023-01-01T08:19:31;10.10;99.90
9385;DHT22;4732;49.340;10.886;2023-01-01T08:21:56;10.20;99.90
9385;DHT22;4732;49.340;10.886;2023-01-01T08:24:22;10.20;99.90
9385;DHT22;4732;49.340;10.886;2023-01-01T08:26:48;10.30;99.90
9385;DHT22;4732;49.340;10.886;2023-01-01T08:29:15;10.30;99.90
9385;DHT22;4732;49.340;10.886;2023-01-01T08:31:40;10.20;99.90
9385;DHT22;4732;49.340;10.886;2023-01-01T08:34:06;11.40;99.90
9385;DHT22;4732;49.340;10.886;2023-01-01T08:36:32;10.20;99.90
9385;DHT22;4732;49.340;10.886;2023-01-01T08:38:57;10.80;99.90
9385;DHT22;4732;49.340;10.886;2023-01-01T08:41:23;10.60;99.90
9385;DHT22;4732;49.340;10.886;2023-01-01T08:43:49;10.90;99.90
9385;DHT22;4732;49.340;10.886;2023-01-01T08:46:14;11.70;99.90
9385;DHT22;4732;49.340;10.886;2023-01-01T08:48:40;10.50;99.90
9385;DHT22;4732;49.340;10.886;2023-01-01T08:51:05;10.90;99.90
9385;DHT22;4732;49.340;10.886;2023-01-01T08:53:31;10.90;99.90
9385;DHT22;4732;49.340;10.886;2023-01-01T08:55:58;10.90;99.90
9385;DHT22;4732;49.340;10.886;2023-01-01T08:58:25;10.90;99.90
9385;DHT22;4732;49.340;10.886;2023-01-01T09:00:51;10.70;99.90
9385;DHT22;4732;49.340;10.886;2023-01-01T09:03:17;10.60;99.90
9385;DHT22;4732;49.340;10.886;2023-01-01T09:05:42;11.00;99.90
9385;DHT22;4732;49.340;10.886;2023-01-01T09:08:14;10.60;99.90
9385;DHT22;4732;49.340;10.886;2023-01-01T09:10:40;10.70;99.90
9385;DHT22;4732;49.340;10.886;2023-01-01T09:13:11;10.60;99.90
9385;DHT22;4732;49.340;10.886;2023-01-01T09:15:38;10.90;99.90
9385;DHT22;4732;49.340;10.886;2023-01-01T09:18:04;10.80;99.90
9385;DHT22;4732;49.340;10.886;2023-01-01T09:20:29;11.00;99.90
9385;DHT22;4732;49.340;10.886;2023-01-01T09:22:55;10.90;99.90
9385;DHT22;4732;49.340;10.886;2023-01-01T09:25:20;11.00;99.90
9385;DHT22;4732;49.340;10.886;2023-01-01T09:27:46;10.80;99.90
9385;DHT22;4732;49.340;10.886;2023-01-01T09:30:12;10.90;99.90
9385;DHT22;4732;49.340;10.886;2023-01-01T09:32:38;11.00;99.90
9385;DHT22;4732;49.340;10.886;2023-01-01T09:35:03;10.80;99.90
9385;DHT22;4732;49.340;10.886;2023-01-01T09:37:29;11.10;99.90
9385;DHT22;4732;49.340;10.886;2023-01-01T09:39:55;11.20;99.90
9385;DHT22;4732;49.340;10.886;2023-01-01T09:42:48;11.20;99.90
9385;DHT22;4732;49.340;10.886;2023-01-01T09:47:45;11.40;99.90
9385;DHT22;4732;49.340;10.886;2023-01-01T09:52:49;10.90;99.90
9385;DHT22;4732;49.340;10.886;2023-01-01T09:58:28;11.70;99.90
9385;DHT22;4732;49.340;10.886;2023-01-01T10:01:02;11.80;99.90
9385;DHT22;4732;49.340;10.886;2023-01-01T10:06:24;12.60;99.90
9385;DHT22;4732;49.340;10.886;2023-01-01T10:11:35;12.30;99.90
9385;DHT22;4732;49.340;10.886;2023-01-01T10:14:26;12.10;99.90
9385;DHT22;4732;49.340;10.886;2023-01-01T10:16:55;12.60;99.90
9385;DHT22;4732;49.340;10.886;2023-01-01T10:19:41;12.50;99.90
9385;DHT22;4732;49.340;10.886;2023-01-01T10:22:12;12.70;99.90
9385;DHT22;4732;49.340;10.886;2023-01-01T10:24:48;12.50;99.90
9385;DHT22;4732;49.340;10.886;2023-01-01T10:27:26;12.40;99.90
9385;DHT22;4732;49.340;10.886;2023-01-01T10:29:54;12.90;99.90
9385;DHT22;4732;49.340;10.886;2023-01-01T10:32:29;12.50;99.90
9385;DHT22;4732;49.340;10.886;2023-01-01T10:34:57;12.70;99.90
9385;DHT22;4732;49.340;10.886;2023-01-01T10:37:24;12.40;99.90
9385;DHT22;4732;49.340;10.886;2023-01-01T10:39:51;13.20;99.90
9385;DHT22;4732;49.340;10.886;2023-01-01T10:42:17;12.40;99.90
9385;DHT22;4732;49.340;10.886;2023-01-01T10:44:42;12.40;99.90
9385;DHT22;4732;49.340;10.886;2023-01-01T10:47:28;13.10;99.90
9385;DHT22;4732;49.340;10.886;2023-01-01T10:50:03;12.60;99.90
9385;DHT22;4732;49.340;10.886;2023-01-01T10:52:40;12.60;99.90
9385;DHT22;4732;49.340;10.886;2023-01-01T10:55:18;12.80;99.90
9385;DHT22;4732;49.340;10.886;2023-01-01T10:57:44;12.40;99.90
9385;DHT22;4732;49.340;10.886;2023-01-01T11:00:19;12.40;99.90
9385;DHT22;4732;49.340;10.886;2023-01-01T11:02:46;12.60;99.90
9385;DHT22;4732;49.340;10.886;2023-01-01T11:05:19;12.50;99.90
9385;DHT22;4732;49.340;10.886;2023-01-01T11:07:46;12.60;99.90
9385;DHT22;4732;49.340;10.886;2023-01-01T11:12:41;12.50;99.90
9385;DHT22;4732;49.340;10.886;2023-01-01T11:15:07;12.60;99.90
9385;DHT22;4732;49.340;10.886;2023-01-01T11:17:44;12.90;99.90
9385;DHT22;4732;49.340;10.886;2023-01-01T11:20:17;12.40;99.90
9385;DHT22;4732;49.340;10.886;2023-01-01T11:22:46;12.50;99.90
9385;DHT22;4732;49.340;10.886;2023-01-01T11:27:48;12.90;99.90
9385;DHT22;4732;49.340;10.886;2023-01-01T11:30:22;13.30;99.90
9385;DHT22;4732;49.340;10.886;2023-01-01T11:32:50;13.10;99.90
9385;DHT22;4732;49.340;10.886;2023-01-01T11:35:21;14.10;99.90
9385;DHT22;4732;49.340;10.886;2023-01-01T11:37:49;12.90;99.90
9385;DHT22;4732;49.340;10.886;2023-01-01T11:40:24;13.20;99.90
9385;DHT22;4732;49.340;10.886;2023-01-01T11:42:57;13.80;99.90
9385;DHT22;4732;49.340;10.886;2023-01-01T11:45:32;13.20;99.90
9385;DHT22;4732;49.340;10.886;2023-01-01T11:48:00;12.90;99.90
9385;DHT22;4732;49.340;10.886;2023-01-01T11:50:36;12.90;99.90
9385;DHT22;4732;49.340;10.886;2023-01-01T11:53:27;13.10;99.90
9385;DHT22;4732;49.340;10.886;2023-01-01T11:56:10;13.20;99.90
9385;DHT22;4732;49.340;10.886;2023-01-01T12:01:36;13.50;99.90
9385;DHT22;4732;49.340;10.886;2023-01-01T12:04:07;13.50;99.90
9385;DHT22;4732;49.340;10.886;2023-01-01T12:07:03;13.30;99.90
9385;DHT22;4732;49.340;10.886;2023-01-01T12:09:43;13.30;99.90
9385;DHT22;4732;49.340;10.886;2023-01-01T12:14:56;13.30;99.90
9385;DHT22;4732;49.340;10.886;2023-01-01T12:17:33;13.40;99.90
9385;DHT22;4732;49.340;10.886;2023-01-01T12:22:47;13.40;99.90
9385;DHT22;4732;49.340;10.886;2023-01-01T12:25:15;13.50;99.90
9385;DHT22;4732;49.340;10.886;2023-01-01T12:28:15;13.90;99.90
9385;DHT22;4732;49.340;10.886;2023-01-01T12:33:40;13.80;99.90
9385;DHT22;4732;49.340;10.886;2023-01-01T13:00:23;14.40;99.90
9385;DHT22;4732;49.340;10.886;2023-01-01T13:03:18;14.60;99.90
9385;DHT22;4732;49.340;10.886;2023-01-01T13:05:48;14.40;99.90
9385;DHT22;4732;49.340;10.886;2023-01-01T13:08:15;14.50;99.90
9385;DHT22;4732;49.340;10.886;2023-01-01T13:10:43;14.50;99.90
9385;DHT22;4732;49.340;10.886;2023-01-01T13:13:10;14.50;99.90
9385;DHT22;4732;49.340;10.886;2023-01-01T13:18:07;14.20;99.90
9385;DHT22;4732;49.340;10.886;2023-01-01T13:37:30;14.10;99.90
9385;DHT22;4732;49.340;10.886;2023-01-01T13:45:28;14.10;99.90
9385;DHT22;4732;49.340;10.886;2023-01-01T13:50:51;14.20;99.90
9385;DHT22;4732;49.340;10.886;2023-01-01T14:02:16;13.90;99.90
9385;DHT22;4732;49.340;10.886;2023-01-01T14:05:06;14.00;99.90
9385;DHT22;4732;49.340;10.886;2023-01-01T14:07:53;13.90;99.90
9385;DHT22;4732;49.340;10.886;2023-01-01T14:10:26;13.90;99.90
9385;DHT22;4732;49.340;10.886;2023-01-01T14:12:55;13.80;99.90
9385;DHT22;4732;49.340;10.886;2023-01-01T14:15:23;14.10;99.90
9385;DHT22;4732;49.340;10.886;2023-01-01T14:17:50;14.00;99.90
9385;DHT22;4732;49.340;10.886;2023-01-01T14:20:20;13.90;99.90
9385;DHT22;4732;49.340;10.886;2023-01-01T14:22:46;13.80;99.90
9385;DHT22;4732;49.340;10.886;2023-01-01T14:25:15;13.90;99.90
9385;DHT22;4732;49.340;10.886;2023-01-01T14:27:42;13.80;99.90
9385;DHT22;4732;49.340;10.886;2023-01-01T14:30:15;13.70;99.90
9385;DHT22;4732;49.340;10.886;2023-01-01T14:32:41;13.70;99.90
9385;DHT22;4732;49.340;10.886;2023-01-01T14:35:15;13.60;99.90
9385;DHT22;4732;49.340;10.886;2023-01-01T14:37:41;13.40;99.90
9385;DHT22;4732;49.340;10.886;2023-01-01T14:40:15;13.60;99.90
9385;DHT22;4732;49.340;10.886;2023-01-01T14:42:41;13.60;99.90
9385;DHT22;4732;49.340;10.886;2023-01-01T14:45:16;13.90;99.90
9385;DHT22;4732;49.340;10.886;2023-01-01T14:47:47;13.30;99.90
9385;DHT22;4732;49.340;10.886;2023-01-01T14:50:23;13.20;99.90
9385;DHT22;4732;49.340;10.886;2023-01-01T14:53:04;13.10;99.90
9385;DHT22;4732;49.340;10.886;2023-01-01T14:55:41;13.00;99.90
9385;DHT22;4732;49.340;10.886;2023-01-01T14:58:22;12.90;99.90
9385;DHT22;4732;49.340;10.886;2023-01-01T15:00:49;12.90;99.90
9385;DHT22;4732;49.340;10.886;2023-01-01T15:03:17;13.10;99.90
9385;DHT22;4732;49.340;10.886;2023-01-01T15:05:45;12.70;99.90
9385;DHT22;4732;49.340;10.886;2023-01-01T15:08:22;12.80;99.90
9385;DHT22;4732;49.340;10.886;2023-01-01T15:10:48;12.60;99.90
9385;DHT22;4732;49.340;10.886;2023-01-01T15:13:22;12.40;99.90
9385;DHT22;4732;49.340;10.886;2023-01-01T15:15:51;12.50;99.90
9385;DHT22;4732;49.340;10.886;2023-01-01T15:21:00;12.50;99.90
9385;DHT22;4732;49.340;10.886;2023-01-01T15:23:26;12.40;99.90
9385;DHT22;4732;49.340;10.886;2023-01-01T15:25:52;11.70;99.90
9385;DHT22;4732;49.340;10.886;2023-01-01T15:28:19;12.40;99.90
9385;DHT22;4732;49.340;10.886;2023-01-01T15:30:51;11.40;99.90
9385;DHT22;4732;49.340;10.886;2023-01-01T15:33:18;11.40;99.90
9385;DHT22;4732;49.340;10.886;2023-01-01T15:35:51;11.70;99.90
9385;DHT22;4732;49.340;10.886;2023-01-01T15:38:26;11.30;99.90
9385;DHT22;4732;49.340;10.886;2023-01-01T15:40:55;10.80;99.90
9385;DHT22;4732;49.340;10.886;2023-01-01T15:43:21;11.50;99.90
9385;DHT22;4732;49.340;10.886;2023-01-01T15:45:53;11.50;99.90
9385;DHT22;4732;49.340;10.886;2023-01-01T15:48:34;10.40;99.90
9385;DHT22;4732;49.340;10.886;2023-01-01T15:51:22;10.30;99.90
9385;DHT22;4732;49.340;10.886;2023-01-01T15:53:55;10.10;99.90
9385;DHT22;4732;49.340;10.886;2023-01-01T15:56:24;10.60;99.90
9385;DHT22;4732;49.340;10.886;2023-01-01T15:59:00;10.00;99.90
9385;DHT22;4732;49.340;10.886;2023-01-01T16:01:29;9.90;99.90
9385;DHT22;4732;49.340;10.886;2023-01-01T16:04:14;10.00;99.90
9385;DHT22;4732;49.340;10.886;2023-01-01T16:06:44;9.80;99.90
9385;DHT22;4732;49.340;10.886;2023-01-01T16:09:14;10.40;99.90
9385;DHT22;4732;49.340;10.886;2023-01-01T16:11:41;9.80;99.90
9385;DHT22;4732;49.340;10.886;2023-01-01T16:14:07;9.40;99.90
9385;DHT22;4732;49.340;10.886;2023-01-01T16:16:33;9.70;99.90
9385;DHT22;4732;49.340;10.886;2023-01-01T16:18:58;9.70;99.90
9385;DHT22;4732;49.340;10.886;2023-01-01T16:21:26;9.50;99.90
9385;DHT22;4732;49.340;10.886;2023-01-01T16:23:53;9.50;99.90
9385;DHT22;4732;49.340;10.886;2023-01-01T16:26:19;9.30;99.90
9385;DHT22;4732;49.340;10.886;2023-01-01T16:28:45;9.40;99.90
9385;DHT22;4732;49.340;10.886;2023-01-01T16:31:15;9.20;99.90
9385;DHT22;4732;49.340;10.886;2023-01-01T16:33:43;9.00;99.90
9385;DHT22;4732;49.340;10.886;2023-01-01T16:36:12;8.90;99.90
9385;DHT22;4732;49.340;10.886;2023-01-01T16:38:37;8.90;99.90
9385;DHT22;4732;49.340;10.886;2023-01-01T16:41:03;9.40;99.90
9385;DHT22;4732;49.340;10.886;2023-01-01T16:43:28;8.80;99.90
9385;DHT22;4732;49.340;10.886;2023-01-01T16:45:54;8.70;99.90
9385;DHT22;4732;49.340;10.886;2023-01-01T16:48:19;8.50;99.90
9385;DHT22;4732;49.340;10.886;2023-01-01T16:50:49;8.50;99.90
9385;DHT22;4732;49.340;10.886;2023-01-01T16:53:16;8.00;99.90
9385;DHT22;4732;49.340;10.886;2023-01-01T16:55:41;8.50;99.90
9385;DHT22;4732;49.340;10.886;2023-01-01T16:58:07;8.10;99.90
9385;DHT22;4732;49.340;10.886;2023-01-01T17:00:32;8.10;99.90
9385;DHT22;4732;49.340;10.886;2023-01-01T17:02:58;8.10;99.90
9385;DHT22;4732;49.340;10.886;2023-01-01T17:05:23;8.20;99.90
9385;DHT22;4732;49.340;10.886;2023-01-01T17:07:49;8.20;99.90
9385;DHT22;4732;49.340;10.886;2023-01-01T17:10:16;8.10;99.90
9385;DHT22;4732;49.340;10.886;2023-01-01T17:12:41;8.40;99.90
9385;DHT22;4732;49.340;10.886;2023-01-01T17:15:07;8.30;99.90
9385;DHT22;4732;49.340;10.886;2023-01-01T17:17:33;8.40;99.90
9385;DHT22;4732;49.340;10.886;2023-01-01T17:19:58;8.20;99.90
9385;DHT22;4732;49.340;10.886;2023-01-01T17:22:24;8.20;99.90
9385;DHT22;4732;49.340;10.886;2023-01-01T17:24:49;8.50;99.90
9385;DHT22;4732;49.340;10.886;2023-01-01T17:27:15;7.90;99.90
9385;DHT22;4732;49.340;10.886;2023-01-01T17:29:40;8.00;99.90
9385;DHT22;4732;49.340;10.886;2023-01-01T17:32:06;8.20;99.90
9385;DHT22;4732;49.340;10.886;2023-01-01T17:34:31;7.70;99.90
9385;DHT22;4732;49.340;10.886;2023-01-01T17:36:57;8.00;99.90
9385;DHT22;4732;49.340;10.886;2023-01-01T17:39:22;8.10;99.90
9385;DHT22;4732;49.340;10.886;2023-01-01T17:41:48;7.70;99.90
9385;DHT22;4732;49.340;10.886;2023-01-01T17:44:13;8.00;99.90
9385;DHT22;4732;49.340;10.886;2023-01-01T17:46:39;7.90;99.90
9385;DHT22;4732;49.340;10.886;2023-01-01T17:49:04;7.90;99.90
9385;DHT22;4732;49.340;10.886;2023-01-01T17:51:31;7.80;99.90
9385;DHT22;4732;49.340;10.886;2023-01-01T17:53:57;7.90;99.90
9385;DHT22;4732;49.340;10.886;2023-01-01T17:56:23;7.80;99.90
9385;DHT22;4732;49.340;10.886;2023-01-01T17:58:51;7.60;99.90
9385;DHT22;4732;49.340;10.886;2023-01-01T18:03:45;7.80;99.90
9385;DHT22;4732;49.340;10.886;2023-01-01T18:06:11;7.70;99.90
9385;DHT22;4732;49.340;10.886;2023-01-01T18:08:37;7.80;99.90
9385;DHT22;4732;49.340;10.886;2023-01-01T18:11:03;7.20;99.90
9385;DHT22;4732;49.340;10.886;2023-01-01T18:13:28;8.50;99.90
9385;DHT22;4732;49.340;10.886;2023-01-01T18:15:59;7.70;99.90
9385;DHT22;4732;49.340;10.886;2023-01-01T18:18:25;7.70;99.90
9385;DHT22;4732;49.340;10.886;2023-01-01T18:20:51;7.70;99.90
9385;DHT22;4732;49.340;10.886;2023-01-01T18:23:16;7.70;99.90
9385;DHT22;4732;49.340;10.886;2023-01-01T18:25:42;7.60;99.90
9385;DHT22;4732;49.340;10.886;2023-01-01T18:28:07;7.50;99.90
9385;DHT22;4732;49.340;10.886;2023-01-01T18:30:34;7.50;99.90
9385;DHT22;4732;49.340;10.886;2023-01-01T18:33:01;7.50;99.90
9385;DHT22;4732;49.340;10.886;2023-01-01T18:35:26;7.40;99.90
9385;DHT22;4732;49.340;10.886;2023-01-01T18:37:52;7.40;99.90
9385;DHT22;4732;49.340;10.886;2023-01-01T18:40:17;7.50;99.90
9385;DHT22;4732;49.340;10.886;2023-01-01T18:43:10;7.30;99.90
9385;DHT22;4732;49.340;10.886;2023-01-01T18:45:39;7.60;99.90
9385;DHT22;4732;49.340;10.886;2023-01-01T18:48:14;7.40;99.90
9385;DHT22;4732;49.340;10.886;2023-01-01T18:50:41;7.60;99.90
9385;DHT22;4732;49.340;10.886;2023-01-01T18:53:26;7.50;99.90
9385;DHT22;4732;49.340;10.886;2023-01-01T18:55:59;7.80;99.90
9385;DHT22;4732;49.340;10.886;2023-01-01T18:58:25;7.20;99.90
9385;DHT22;4732;49.340;10.886;2023-01-01T19:00:52;7.40;99.90
9385;DHT22;4732;49.340;10.886;2023-01-01T19:03:20;7.40;99.90
9385;DHT22;4732;49.340;10.886;2023-01-01T19:05:57;7.50;99.90
9385;DHT22;4732;49.340;10.886;2023-01-01T19:08:27;7.40;99.90
9385;DHT22;4732;49.340;10.886;2023-01-01T19:11:01;7.20;99.90
9385;DHT22;4732;49.340;10.886;2023-01-01T19:13:36;7.50;99.90
9385;DHT22;4732;49.340;10.886;2023-01-01T19:18:41;7.70;99.90
9385;DHT22;4732;49.340;10.886;2023-01-01T19:23:52;7.70;99.90
9385;DHT22;4732;49.340;10.886;2023-01-01T19:28:57;8.00;99.90
9385;DHT22;4732;49.340;10.886;2023-01-01T19:31:26;8.90;99.90
9385;DHT22;4732;49.340;10.886;2023-01-01T19:33:52;8.90;99.90
9385;DHT22;4732;49.340;10.886;2023-01-01T19:36:17;9.00;99.90
9385;DHT22;4732;49.340;10.886;2023-01-01T19:38:43;9.20;99.90
9385;DHT22;4732;49.340;10.886;2023-01-01T19:41:09;9.20;99.90
9385;DHT22;4732;49.340;10.886;2023-01-01T19:43:36;9.60;99.90
9385;DHT22;4732;49.340;10.886;2023-01-01T19:46:02;9.70;99.90
9385;DHT22;4732;49.340;10.886;2023-01-01T19:48:27;9.80;99.90
9385;DHT22;4732;49.340;10.886;2023-01-01T19:50:54;9.80;99.90
9385;DHT22;4732;49.340;10.886;2023-01-01T19:53:20;9.90;99.90
9385;DHT22;4732;49.340;10.886;2023-01-01T19:55:45;9.80;99.90
9385;DHT22;4732;49.340;10.886;2023-01-01T19:58:11;10.00;99.90
9385;DHT22;4732;49.340;10.886;2023-01-01T20:00:36;10.10;99.90
9385;DHT22;4732;49.340;10.886;2023-01-01T20:03:02;10.00;99.90
9385;DHT22;4732;49.340;10.886;2023-01-01T20:05:28;10.40;99.90
9385;DHT22;4732;49.340;10.886;2023-01-01T20:07:53;10.20;99.90
9385;DHT22;4732;49.340;10.886;2023-01-01T20:10:19;9.90;99.90
9385;DHT22;4732;49.340;10.886;2023-01-01T20:12:45;11.10;99.90
9385;DHT22;4732;49.340;10.886;2023-01-01T20:15:12;10.50;99.90
9385;DHT22;4732;49.340;10.886;2023-01-01T20:17:38;10.10;99.90
9385;DHT22;4732;49.340;10.886;2023-01-01T20:20:04;10.20;99.90
9385;DHT22;4732;49.340;10.886;2023-01-01T20:22:29;10.30;99.90
9385;DHT22;4732;49.340;10.886;2023-01-01T20:24:55;10.10;99.90
9385;DHT22;4732;49.340;10.886;2023-01-01T20:27:20;10.20;99.90
9385;DHT22;4732;49.340;10.886;2023-01-01T20:29:49;10.10;99.90
9385;DHT22;4732;49.340;10.886;2023-01-01T20:32:15;9.80;99.90
9385;DHT22;4732;49.340;10.886;2023-01-01T20:34:41;9.90;99.90
9385;DHT22;4732;49.340;10.886;2023-01-01T20:37:09;10.00;99.90
9385;DHT22;4732;49.340;10.886;2023-01-01T20:39:53;9.90;99.90
9385;DHT22;4732;49.340;10.886;2023-01-01T20:42:19;10.00;99.90
9385;DHT22;4732;49.340;10.886;2023-01-01T20:44:44;10.00;99.90
9385;DHT22;4732;49.340;10.886;2023-01-01T20:47:11;10.10;99.90
9385;DHT22;4732;49.340;10.886;2023-01-01T20:49:37;10.30;99.90
9385;DHT22;4732;49.340;10.886;2023-01-01T20:52:03;10.30;99.90
9385;DHT22;4732;49.340;10.886;2023-01-01T20:54:28;10.60;99.90
9385;DHT22;4732;49.340;10.886;2023-01-01T20:56:54;11.30;99.90
9385;DHT22;4732;49.340;10.886;2023-01-01T20:59:20;10.30;99.90
9385;DHT22;4732;49.340;10.886;2023-01-01T21:01:47;10.30;99.90
9385;DHT22;4732;49.340;10.886;2023-01-01T21:04:13;10.20;99.90
9385;DHT22;4732;49.340;10.886;2023-01-01T21:06:39;10.20;99.90
9385;DHT22;4732;49.340;10.886;2023-01-01T21:09:04;10.30;99.90
9385;DHT22;4732;49.340;10.886;2023-01-01T21:11:31;9.80;99.90
9385;DHT22;4732;49.340;10.886;2023-01-01T21:13:57;9.90;99.90
9385;DHT22;4732;49.340;10.886;2023-01-01T21:16:25;10.10;99.90
9385;DHT22;4732;49.340;10.886;2023-01-01T21:18:53;10.20;99.90
9385;DHT22;4732;49.340;10.886;2023-01-01T21:21:25;10.20;99.90
9385;DHT22;4732;49.340;10.886;2023-01-01T21:23:52;10.60;99.90
9385;DHT22;4732;49.340;10.886;2023-01-01T21:26:26;10.40;99.90
9385;DHT22;4732;49.340;10.886;2023-01-01T21:28:52;10.30;99.90
9385;DHT22;4732;49.340;10.886;2023-01-01T21:31:18;10.40;99.90
9385;DHT22;4732;49.340;10.886;2023-01-01T21:33:44;11.30;99.90
9385;DHT22;4732;49.340;10.886;2023-01-01T21:38:43;10.40;99.90
9385;DHT22;4732;49.340;10.886;2023-01-01T21:41:30;10.70;99.90
9385;DHT22;4732;49.340;10.886;2023-01-01T21:43:57;10.60;99.90
9385;DHT22;4732;49.340;10.886;2023-01-01T21:49:15;10.40;99.90
9385;DHT22;4732;49.340;10.886;2023-01-01T21:51:49;10.60;99.90
9385;DHT22;4732;49.340;10.886;2023-01-01T21:54:21;11.30;99.90